Time;durP1;ratioP1;P1;durP2;ratioP2;P2;SDS_P1;SDS_P2;PMS_P1;PMS_P2;Temp;Humidity;BMP_temperature;BMP_pressure;BME280_temperature;BME280_humidity;BME280_pressure;Samples;Min_cycle;Max_cycle;Signal;HPM_P1;HPM_P2
2022/08/24 00:01:45;;;;;;;;;1.33;1.33;;;;;;;;5098011;27;45403;-74
2022/08/24 00:04:11;;;;;;;;;1.00;1.00;;;;;;;;5083388;27;45456;-74
2022/08/24 00:06:36;;;;;;;;;1.00;1.00;;;;;;;;5088331;27;46181;-74
2022/08/24 00:09:01;;;;;;;;;0.33;0.33;;;;;;;;5097595;27;45398;-74
2022/08/24 00:11:27;;;;;;;;;0.67;0.67;;;;;;;;5098231;27;45448;-74
2022/08/24 00:13:53;;;;;;;;;1.00;1.00;;;;;;;;5086912;27;45514;-75
2022/08/24 00:16:19;;;;;;;;;0.00;0.00;;;;;;;;5085877;27;46270;-74
2022/08/24 00:18:45;;;;;;;;;1.00;1.00;;;;;;;;5096747;27;45401;-74
2022/08/24 00:21:11;;;;;;;;;1.00;1.00;;;;;;;;5084405;27;45430;-74
2022/08/24 00:23:36;;;;;;;;;0.33;0.33;;;;;;;;5095026;27;45504;-74
2022/08/24 00:26:03;;;;;;;;;0.33;0.33;;;;;;;;5091580;27;46226;-75
2022/08/24 00:28:29;;;;;;;;;0.67;0.67;;;;;;;;5086041;27;45277;-75
2022/08/24 00:30:54;;;;;;;;;1.00;1.00;;;;;;;;5097658;27;45387;-75
2022/08/24 00:33:20;;;;;;;;;1.67;1.67;;;;;;;;5098079;27;45372;-75
2022/08/24 00:35:45;;;;;;;;;0.00;0.00;;;;;;;;5090965;27;45924;-75
2022/08/24 00:38:10;;;;;;;;;1.00;1.00;;;;;;;;5080932;27;45561;-76
2022/08/24 00:40:38;;;;;;;;;0.00;0.00;;;;;;;;5097927;27;45516;-75
2022/08/24 00:43:05;;;;;;;;;0.33;0.33;;;;;;;;5097735;27;45472;-75
2022/08/24 00:45:32;;;;;;;;;1.00;1.00;;;;;;;;5094905;27;45442;-75
2022/08/24 00:48:01;;;;;;;;;0.00;0.00;;;;;;;;5096278;27;45422;-75
2022/08/24 00:50:39;;;;;;;;;0.00;0.00;;;;;;;;5086319;27;45489;-75
2022/08/24 00:53:07;;;;;;;;;1.00;1.00;;;;;;;;5097190;27;45505;-75
2022/08/24 00:55:35;;;;;;;;;1.67;1.00;;;;;;;;5089562;27;46193;-75
2022/08/24 00:58:01;;;;;;;;;0.00;0.00;;;;;;;;5076775;27;45414;-75
2022/08/24 01:00:30;;;;;;;;;0.33;0.33;;;;;;;;5088673;27;45375;-75
2022/08/24 01:02:58;;;;;;;;;0.00;0.00;;;;;;;;5097250;27;45290;-75
2022/08/24 01:05:24;;;;;;;;;0.33;0.33;;;;;;;;5095382;27;47069;-75
2022/08/24 01:07:49;;;;;;;;;0.33;0.33;;;;;;;;5096708;27;45219;-75
2022/08/24 01:10:17;;;;;;;;;0.33;0.33;;;;;;;;5087316;27;45363;-74
2022/08/24 01:12:44;;;;;;;;;1.00;1.00;;;;;;;;5080027;27;45352;-74
2022/08/24 01:15:10;;;;;;;;;1.00;1.00;;;;;;;;5076873;27;46250;-75
2022/08/24 01:20:22;;;;;;;;;0.00;0.00;;;;;;;;5092876;27;45353;-75
2022/08/24 01:23:06;;;;;;;;;2.00;2.00;;;;;;;;5090521;27;45466;-74
2022/08/24 01:25:32;;;;;;;;;1.00;1.00;;;;;;;;5096211;27;46177;-76
2022/08/24 01:28:00;;;;;;;;;1.00;1.00;;;;;;;;5088734;27;45492;-72
2022/08/24 01:30:26;;;;;;;;;0.67;0.67;;;;;;;;5096870;27;45428;-75
2022/08/24 01:32:59;;;;;;;;;0.00;0.00;;;;;;;;5094423;27;45513;-75
2022/08/24 01:35:25;;;;;;;;;1.33;1.00;;;;;;;;5092417;27;47323;-75
2022/08/24 01:37:50;;;;;;;;;1.00;1.00;;;;;;;;5086932;27;45506;-76
2022/08/24 01:40:17;;;;;;;;;1.00;1.00;;;;;;;;5096850;27;45280;-75
2022/08/24 01:42:50;;;;;;;;;0.67;0.67;;;;;;;;5085311;27;45584;-75
2022/08/24 01:45:15;;;;;;;;;0.00;0.00;;;;;;;;5069591;27;47204;-75
2022/08/24 01:47:40;;;;;;;;;1.00;1.00;;;;;;;;5096433;27;45595;-75
2022/08/24 01:50:06;;;;;;;;;1.00;1.00;;;;;;;;5085494;27;45473;-74
2022/08/24 01:52:32;;;;;;;;;1.00;1.00;;;;;;;;5087791;27;45474;-73
2022/08/24 01:54:57;;;;;;;;;0.00;0.00;;;;;;;;5088739;27;45401;-74
2022/08/24 01:57:23;;;;;;;;;0.00;0.00;;;;;;;;5096283;27;45466;-75
2022/08/24 01:59:49;;;;;;;;;1.00;1.00;;;;;;;;5095404;27;45360;-74
2022/08/24 02:02:20;;;;;;;;;0.00;0.00;;;;;;;;5082373;27;45347;-74
2022/08/24 02:04:46;;;;;;;;;0.00;0.00;;;;;;;;5090453;27;47087;-74
2022/08/24 02:07:12;;;;;;;;;0.00;0.00;;;;;;;;5095478;27;45453;-74
2022/08/24 02:09:37;;;;;;;;;0.00;0.00;;;;;;;;5093895;27;45342;-74
2022/08/24 02:12:03;;;;;;;;;0.33;0.33;;;;;;;;5075456;27;45376;-74
2022/08/24 02:14:29;;;;;;;;;2.67;1.00;;;;;;;;5080985;27;47535;-74
2022/08/24 02:16:56;;;;;;;;;1.00;1.00;;;;;;;;5087133;27;45430;-74
2022/08/24 02:19:21;;;;;;;;;0.00;0.00;;;;;;;;5091054;27;45449;-74
2022/08/24 02:21:46;;;;;;;;;1.67;1.67;;;;;;;;5086844;27;45438;-74
2022/08/24 02:24:11;;;;;;;;;1.00;1.00;;;;;;;;5091335;27;45680;-74
2022/08/24 02:26:37;;;;;;;;;0.33;0.33;;;;;;;;5087919;27;45343;-74
2022/08/24 02:29:03;;;;;;;;;0.33;0.33;;;;;;;;5089412;27;45440;-75
2022/08/24 02:31:28;;;;;;;;;1.00;1.00;;;;;;;;5090555;27;45380;-73
2022/08/24 02:33:53;;;;;;;;;1.00;1.00;;;;;;;;5086197;27;46492;-74
2022/08/24 02:36:18;;;;;;;;;0.00;0.00;;;;;;;;5084161;27;45412;-74
2022/08/24 02:38:43;;;;;;;;;1.00;1.00;;;;;;;;5075454;27;45430;-74
2022/08/24 02:41:10;;;;;;;;;0.33;0.33;;;;;;;;5090904;27;45289;-74
2022/08/24 02:43:35;;;;;;;;;1.00;1.00;;;;;;;;5095833;27;45486;-74
2022/08/24 02:46:00;;;;;;;;;1.00;1.00;;;;;;;;5082485;27;45450;-73
2022/08/24 02:48:35;;;;;;;;;1.00;1.00;;;;;;;;5092866;27;45572;-75
2022/08/24 02:51:04;;;;;;;;;0.33;0.33;;;;;;;;5080227;27;45238;-74
2022/08/24 02:53:29;;;;;;;;;0.33;0.33;;;;;;;;5095535;27;46947;-75
2022/08/24 02:55:56;;;;;;;;;2.67;1.00;;;;;;;;5094133;27;45442;-75
2022/08/24 02:58:21;;;;;;;;;1.00;1.00;;;;;;;;5087751;27;45473;-75
2022/08/24 03:00:47;;;;;;;;;0.33;0.33;;;;;;;;5095650;27;45509;-75
2022/08/24 03:03:12;;;;;;;;;0.33;0.33;;;;;;;;5086341;27;45447;-75
2022/08/24 03:05:40;;;;;;;;;0.33;0.33;;;;;;;;5093523;27;45470;-75
2022/08/24 03:08:06;;;;;;;;;0.33;0.33;;;;;;;;5077572;27;45377;-74
2022/08/24 03:10:31;;;;;;;;;1.00;1.00;;;;;;;;5078053;27;45372;-73
2022/08/24 03:13:00;;;;;;;;;2.00;1.00;;;;;;;;5094707;27;45487;-73
2022/08/24 03:15:25;;;;;;;;;0.67;0.67;;;;;;;;5091800;27;45365;-72
2022/08/24 03:17:50;;;;;;;;;0.00;0.00;;;;;;;;5098442;27;45402;-73
2022/08/24 03:20:17;;;;;;;;;0.33;0.33;;;;;;;;5092300;27;45252;-73
2022/08/24 03:22:42;;;;;;;;;0.33;0.33;;;;;;;;5094011;27;46710;-73
2022/08/24 03:25:08;;;;;;;;;1.00;1.00;;;;;;;;5098692;27;45353;-74
2022/08/24 03:27:33;;;;;;;;;0.33;0.33;;;;;;;;5066098;27;45331;-74
2022/08/24 03:30:00;;;;;;;;;0.00;0.00;;;;;;;;5099059;27;45358;-74
2022/08/24 03:32:25;;;;;;;;;1.00;1.00;;;;;;;;5094233;27;46173;-73
2022/08/24 03:34:50;;;;;;;;;0.00;0.00;;;;;;;;5079206;27;45311;-73
2022/08/24 03:37:15;;;;;;;;;1.00;1.00;;;;;;;;5090376;27;45457;-73
2022/08/24 03:39:41;;;;;;;;;1.00;1.00;;;;;;;;5098404;27;45478;-74
2022/08/24 03:42:06;;;;;;;;;1.00;1.00;;;;;;;;5092572;27;47096;-73
2022/08/24 03:44:31;;;;;;;;;1.00;1.00;;;;;;;;5093159;27;45333;-73
2022/08/24 03:46:57;;;;;;;;;1.00;1.00;;;;;;;;5098031;27;45346;-73
2022/08/24 03:49:22;;;;;;;;;1.33;1.33;;;;;;;;5088084;27;45337;-73
2022/08/24 03:51:48;;;;;;;;;0.00;0.00;;;;;;;;5092914;27;45434;-74
2022/08/24 03:54:14;;;;;;;;;1.00;1.00;;;;;;;;5098119;27;45343;-73
2022/08/24 03:56:39;;;;;;;;;0.00;0.00;;;;;;;;5095204;27;45391;-74
2022/08/24 03:59:06;;;;;;;;;0.67;0.67;;;;;;;;5098338;27;45354;-73
2022/08/24 04:01:31;;;;;;;;;0.67;0.67;;;;;;;;5097611;27;46286;-73
2022/08/24 04:03:58;;;;;;;;;1.00;1.00;;;;;;;;5098018;27;45403;-73
2022/08/24 04:06:24;;;;;;;;;0.00;0.00;;;;;;;;5094066;27;45361;-73
2022/08/24 04:08:49;;;;;;;;;1.00;1.00;;;;;;;;5085800;27;45298;-73
2022/08/24 04:11:16;;;;;;;;;0.33;0.33;;;;;;;;5080258;27;45443;-73
2022/08/24 04:13:42;;;;;;;;;1.00;1.00;;;;;;;;5077469;27;45513;-73
2022/08/24 04:16:08;;;;;;;;;1.00;0.00;;;;;;;;5079571;27;45526;-74
2022/08/24 04:18:33;;;;;;;;;1.33;1.33;;;;;;;;5089016;27;45512;-74
2022/08/24 04:20:59;;;;;;;;;1.33;1.33;;;;;;;;5097616;27;46745;-74
2022/08/24 04:23:24;;;;;;;;;0.67;0.33;;;;;;;;5092544;27;45308;-73
2022/08/24 04:25:50;;;;;;;;;1.00;1.00;;;;;;;;5097879;27;45363;-73
2022/08/24 04:28:17;;;;;;;;;0.33;0.33;;;;;;;;5079838;27;45495;-74
2022/08/24 04:30:43;;;;;;;;;1.00;0.00;;;;;;;;5090351;27;46340;-74
2022/08/24 04:33:10;;;;;;;;;0.00;0.00;;;;;;;;5097750;27;45374;-74
2022/08/24 04:35:36;;;;;;;;;0.33;0.33;;;;;;;;5092551;27;45411;-74
2022/08/24 04:38:01;;;;;;;;;2.00;0.33;;;;;;;;5094808;27;45327;-73
2022/08/24 04:40:27;;;;;;;;;0.00;0.00;;;;;;;;5088106;27;46186;-74
2022/08/24 04:42:52;;;;;;;;;1.00;1.00;;;;;;;;5092507;27;45552;-73
2022/08/24 04:45:17;;;;;;;;;1.00;1.00;;;;;;;;5088414;27;45356;-73
2022/08/24 04:47:43;;;;;;;;;0.33;0.33;;;;;;;;5094816;27;45434;-72
2022/08/24 04:50:08;;;;;;;;;1.00;1.00;;;;;;;;5096104;27;46221;-74
2022/08/24 04:52:34;;;;;;;;;0.00;0.00;;;;;;;;5097448;27;45397;-73
2022/08/24 04:54:59;;;;;;;;;1.00;1.00;;;;;;;;5097288;27;45325;-74
2022/08/24 04:57:24;;;;;;;;;0.33;0.33;;;;;;;;5097308;27;45542;-74
2022/08/24 04:59:54;;;;;;;;;0.00;0.00;;;;;;;;5078556;27;48292;-74
2022/08/24 05:02:20;;;;;;;;;0.33;0.33;;;;;;;;5096953;27;45363;-74
2022/08/24 05:04:47;;;;;;;;;0.00;0.00;;;;;;;;5097366;27;45514;-74
2022/08/24 05:07:12;;;;;;;;;0.00;0.00;;;;;;;;5095480;27;45597;-74
2022/08/24 05:09:37;;;;;;;;;1.33;1.33;;;;;;;;5083668;27;46328;-73
2022/08/24 05:12:03;;;;;;;;;1.00;1.00;;;;;;;;5097287;27;45426;-73
2022/08/24 05:14:28;;;;;;;;;0.00;0.00;;;;;;;;5082057;27;45470;-73
2022/08/24 05:16:53;;;;;;;;;0.33;0.33;;;;;;;;5088163;27;45316;-73
2022/08/24 05:19:19;;;;;;;;;0.67;0.67;;;;;;;;5093648;27;46144;-75
2022/08/24 05:21:44;;;;;;;;;0.33;0.33;;;;;;;;5085999;27;45446;-73
2022/08/24 05:24:09;;;;;;;;;0.00;0.00;;;;;;;;5093404;27;45391;-74
2022/08/24 05:26:34;;;;;;;;;0.00;0.00;;;;;;;;5093557;27;45433;-74
2022/08/24 05:29:01;;;;;;;;;1.00;1.00;;;;;;;;5088835;27;45469;-73
2022/08/24 05:31:27;;;;;;;;;1.00;1.00;;;;;;;;5079495;27;45385;-73
2022/08/24 05:33:52;;;;;;;;;0.67;0.67;;;;;;;;5087197;27;45458;-74
2022/08/24 05:36:20;;;;;;;;;0.33;0.33;;;;;;;;5088218;27;45466;-74
2022/08/24 05:38:46;;;;;;;;;0.00;0.00;;;;;;;;5096631;27;45367;-74
2022/08/24 05:41:12;;;;;;;;;1.00;1.00;;;;;;;;5082573;27;45388;-74
2022/08/24 05:43:38;;;;;;;;;1.00;1.00;;;;;;;;5085147;27;45402;-73
2022/08/24 05:46:03;;;;;;;;;0.33;0.00;;;;;;;;5090146;27;45349;-73
2022/08/24 05:48:28;;;;;;;;;0.33;0.33;;;;;;;;5095951;27;45399;-73
2022/08/24 05:50:54;;;;;;;;;1.00;1.00;;;;;;;;5083382;27;45288;-73
2022/08/24 05:53:20;;;;;;;;;1.67;0.00;;;;;;;;5093799;27;45566;-74
2022/08/24 05:55:45;;;;;;;;;0.33;0.33;;;;;;;;5096732;27;45322;-73
2022/08/24 05:58:11;;;;;;;;;1.00;1.00;;;;;;;;5095902;27;45461;-73
2022/08/24 06:00:36;;;;;;;;;1.00;1.00;;;;;;;;5078235;27;45386;-73
2022/08/24 06:03:02;;;;;;;;;1.00;1.00;;;;;;;;5096348;27;45555;-74
2022/08/24 06:05:27;;;;;;;;;1.33;1.33;;;;;;;;5096019;27;45326;-73
2022/08/24 06:07:52;;;;;;;;;1.00;1.00;;;;;;;;5096224;27;45345;-73
2022/08/24 06:10:18;;;;;;;;;2.33;1.00;;;;;;;;5089930;27;45429;-73
2022/08/24 06:12:43;;;;;;;;;1.00;1.00;;;;;;;;5079581;27;45465;-74
2022/08/24 06:15:08;;;;;;;;;0.33;0.33;;;;;;;;5077895;27;45361;-74
2022/08/24 06:17:33;;;;;;;;;0.67;0.67;;;;;;;;5092285;27;45323;-73
2022/08/24 06:19:58;;;;;;;;;0.33;0.33;;;;;;;;5085730;27;45490;-73
2022/08/24 06:22:24;;;;;;;;;0.00;0.00;;;;;;;;5090655;27;45384;-74
2022/08/24 06:27:32;;;;;;;;;0.00;0.00;;;;;;;;5090300;27;45387;-73
2022/08/24 06:30:00;;;;;;;;;0.00;0.00;;;;;;;;5071011;27;45644;-74
2022/08/24 06:32:25;;;;;;;;;1.00;1.00;;;;;;;;5074082;28;45478;-74
2022/08/24 06:34:53;;;;;;;;;1.00;1.00;;;;;;;;5070807;27;45348;-73
2022/08/24 06:37:19;;;;;;;;;0.00;0.00;;;;;;;;5071207;27;46357;-73
2022/08/24 06:39:44;;;;;;;;;1.00;1.00;;;;;;;;5067342;28;45375;-73
2022/08/24 06:42:09;;;;;;;;;0.00;0.00;;;;;;;;5071216;27;45356;-73
2022/08/24 06:44:35;;;;;;;;;1.00;1.00;;;;;;;;5070618;27;45371;-74
2022/08/24 06:47:00;;;;;;;;;1.00;1.00;;;;;;;;5076159;27;46205;-73
2022/08/24 06:49:25;;;;;;;;;5.67;2.33;;;;;;;;5075474;27;45477;-72
2022/08/24 06:51:50;;;;;;;;;2.67;2.67;;;;;;;;5074273;27;45638;-72
2022/08/24 06:54:16;;;;;;;;;1.67;0.33;;;;;;;;5073409;27;45284;-72
2022/08/24 06:56:41;;;;;;;;;2.33;2.00;;;;;;;;5071600;27;45434;-72
2022/08/24 06:59:07;;;;;;;;;1.00;1.00;;;;;;;;5077701;27;45382;-72
2022/08/24 07:01:32;;;;;;;;;1.00;1.00;;;;;;;;5077643;27;45268;-72
2022/08/24 07:03:57;;;;;;;;;2.00;2.00;;;;;;;;5078123;27;45490;-73
2022/08/24 07:06:23;;;;;;;;;1.00;1.00;;;;;;;;5086952;27;46022;-72
2022/08/24 07:08:48;;;;;;;;;3.00;1.00;;;;;;;;5088756;27;45229;-72
2022/08/24 07:11:14;;;;;;;;;1.00;1.00;;;;;;;;5093200;27;45276;-72
2022/08/24 07:13:40;;;;;;;;;1.33;1.33;;;;;;;;5081462;27;45363;-72
2022/08/24 07:16:05;;;;;;;;;1.00;1.00;;;;;;;;5081227;27;46245;-72
2022/08/24 07:18:31;;;;;;;;;1.00;1.00;;;;;;;;5059492;28;45412;-72
2022/08/24 07:20:58;;;;;;;;;1.33;1.33;;;;;;;;5095104;27;45470;-72
2022/08/24 07:23:23;;;;;;;;;0.33;0.33;;;;;;;;5085843;27;45412;-72
2022/08/24 07:25:49;;;;;;;;;2.67;1.00;;;;;;;;5092914;27;46975;-73
2022/08/24 07:28:14;;;;;;;;;1.67;1.00;;;;;;;;5086514;27;45300;-73
2022/08/24 07:30:40;;;;;;;;;1.00;1.00;;;;;;;;5088315;27;45308;-72
2022/08/24 07:33:05;;;;;;;;;1.00;1.00;;;;;;;;5080716;27;45391;-72
2022/08/24 07:35:31;;;;;;;;;3.00;1.00;;;;;;;;5077333;27;46420;-73
2022/08/24 07:37:57;;;;;;;;;0.67;0.67;;;;;;;;5077484;27;45456;-73
2022/08/24 07:40:23;;;;;;;;;1.67;1.67;;;;;;;;5077680;27;45368;-73
2022/08/24 07:42:49;;;;;;;;;0.00;0.00;;;;;;;;5077884;27;45617;-72
2022/08/24 07:45:15;;;;;;;;;1.00;1.00;;;;;;;;5077195;27;45447;-72
2022/08/24 07:47:41;;;;;;;;;2.00;0.00;;;;;;;;5077570;28;45391;-72
2022/08/24 07:50:06;;;;;;;;;1.00;0.00;;;;;;;;5077921;27;45394;-72
2022/08/24 07:52:32;;;;;;;;;0.67;0.67;;;;;;;;5077241;27;45276;-72
2022/08/24 07:54:57;;;;;;;;;1.00;1.00;;;;;;;;5077451;27;47447;-72
2022/08/24 07:57:22;;;;;;;;;1.33;1.00;;;;;;;;5076822;27;45387;-72
2022/08/24 07:59:47;;;;;;;;;1.00;1.00;;;;;;;;5077606;27;45418;-73
2022/08/24 08:02:13;;;;;;;;;0.33;0.33;;;;;;;;5076772;27;45420;-73
2022/08/24 08:04:38;;;;;;;;;1.00;1.00;;;;;;;;5059059;28;46033;-72
2022/08/24 08:07:06;;;;;;;;;1.67;1.00;;;;;;;;5091447;27;45502;-72
2022/08/24 08:09:31;;;;;;;;;1.00;1.00;;;;;;;;5098055;27;45383;-73
2022/08/24 08:11:57;;;;;;;;;0.33;0.33;;;;;;;;5098146;27;45462;-72
2022/08/24 08:14:22;;;;;;;;;1.00;1.00;;;;;;;;5084582;27;45392;-72
2022/08/24 08:16:47;;;;;;;;;0.00;0.00;;;;;;;;5087994;27;45346;-73
2022/08/24 08:19:12;;;;;;;;;1.00;1.00;;;;;;;;5084398;27;45458;-72
2022/08/24 08:24:29;;;;;;;;;0.33;0.33;;;;;;;;5094901;27;45482;-72
2022/08/24 08:26:54;;;;;;;;;0.33;0.33;;;;;;;;5086846;27;45343;-73
2022/08/24 08:29:20;;;;;;;;;1.00;0.00;;;;;;;;5091907;27;45423;-72
2022/08/24 08:31:45;;;;;;;;;2.67;1.00;;;;;;;;5084884;27;45277;-72
2022/08/24 08:34:11;;;;;;;;;1.00;0.33;;;;;;;;5085272;27;46007;-73
2022/08/24 08:36:40;;;;;;;;;1.00;1.00;;;;;;;;5087938;27;45380;-72
2022/08/24 08:39:10;;;;;;;;;1.00;1.00;;;;;;;;5085309;27;45399;-72
2022/08/24 08:41:55;;;;;;;;;0.00;0.00;;;;;;;;5091153;27;45343;-72
2022/08/24 08:44:41;;;;;;;;;1.33;0.33;;;;;;;;5088667;27;46207;-72
2022/08/24 08:47:32;;;;;;;;;2.00;1.00;;;;;;;;5075765;27;45317;-72
2022/08/24 08:50:16;;;;;;;;;0.00;0.00;;;;;;;;5090858;27;45561;-72
2022/08/24 08:52:45;;;;;;;;;0.33;0.33;;;;;;;;5097289;27;45424;-72
2022/08/24 08:55:10;;;;;;;;;2.00;2.00;;;;;;;;5093320;27;47407;-72
2022/08/24 08:57:35;;;;;;;;;1.00;1.00;;;;;;;;5087085;27;45332;-72
2022/08/24 09:00:21;;;;;;;;;2.33;1.00;;;;;;;;5097503;27;45522;-72
2022/08/24 09:03:03;;;;;;;;;1.00;1.00;;;;;;;;5097356;27;45239;-72
2022/08/24 09:05:35;;;;;;;;;1.00;0.00;;;;;;;;5096216;27;45557;-72
2022/08/24 09:08:18;;;;;;;;;2.00;0.67;;;;;;;;5080672;27;46430;-73
2022/08/24 09:10:53;;;;;;;;;1.00;1.00;;;;;;;;5093389;27;45453;-72
2022/08/24 09:13:38;;;;;;;;;1.33;1.00;;;;;;;;5097004;27;45304;-72
2022/08/24 09:16:06;;;;;;;;;1.00;1.00;;;;;;;;5083288;27;45379;-73
2022/08/24 09:18:32;;;;;;;;;1.00;1.00;;;;;;;;5093829;27;45371;-72
2022/08/24 09:21:14;;;;;;;;;1.00;0.33;;;;;;;;5092945;27;45292;-72
2022/08/24 09:24:03;;;;;;;;;2.67;0.33;;;;;;;;5094156;27;45264;-72
2022/08/24 09:26:52;;;;;;;;;0.33;0.33;;;;;;;;5096438;27;46597;-72
2022/08/24 09:29:22;;;;;;;;;0.00;0.00;;;;;;;;5033161;28;45408;-73
2022/08/24 09:31:56;;;;;;;;;0.33;0.33;;;;;;;;5022281;28;45581;-72
2022/08/24 09:34:24;;;;;;;;;0.00;0.00;;;;;;;;5033196;28;45806;-72
2022/08/24 09:37:07;;;;;;;;;0.00;0.00;;;;;;;;5025031;28;46175;-72
2022/08/24 09:39:42;;;;;;;;;0.00;0.00;;;;;;;;5032349;28;45552;-72
2022/08/24 09:42:19;;;;;;;;;1.00;1.00;;;;;;;;5033614;28;45503;-72
2022/08/24 09:45:08;;;;;;;;;0.00;0.00;;;;;;;;5025385;28;45543;-72
2022/08/24 09:47:33;;;;;;;;;0.33;0.33;;;;;;;;5032903;28;45478;-72
2022/08/24 09:50:16;;;;;;;;;0.00;0.00;;;;;;;;5022457;28;45462;-72
2022/08/24 09:53:09;;;;;;;;;1.00;1.00;;;;;;;;5033418;28;45383;-72
2022/08/24 09:55:42;;;;;;;;;1.00;1.00;;;;;;;;5033302;28;45449;-72
2022/08/24 09:58:20;;;;;;;;;0.33;0.33;;;;;;;;5032839;28;46322;-72
2022/08/24 10:01:04;;;;;;;;;0.67;0.67;;;;;;;;5033074;28;45348;-73
2022/08/24 10:03:48;;;;;;;;;1.00;1.00;;;;;;;;5066757;28;45468;-73
2022/08/24 10:06:17;;;;;;;;;0.00;0.00;;;;;;;;5086760;27;45499;-73
2022/08/24 10:08:50;;;;;;;;;2.00;0.00;;;;;;;;5110066;27;45928;-73
2022/08/24 10:11:15;;;;;;;;;1.00;1.00;;;;;;;;5116568;27;45393;-73
2022/08/24 10:13:59;;;;;;;;;2.33;0.67;;;;;;;;5116694;27;45325;-72
2022/08/24 10:16:37;;;;;;;;;0.67;0.67;;;;;;;;5104981;27;45366;-73
2022/08/24 10:19:03;;;;;;;;;0.67;0.67;;;;;;;;5106172;27;46959;-73
2022/08/24 10:21:28;;;;;;;;;1.00;1.00;;;;;;;;5120032;27;45366;-73
2022/08/24 10:24:19;;;;;;;;;0.00;0.00;;;;;;;;5118401;27;45297;-73
2022/08/24 10:27:11;;;;;;;;;0.33;0.33;;;;;;;;5093780;27;45393;-73
2022/08/24 10:29:55;;;;;;;;;0.00;0.00;;;;;;;;5119802;27;46286;-72
2022/08/24 10:32:26;;;;;;;;;0.00;0.00;;;;;;;;5118821;27;45380;-74
2022/08/24 10:35:11;;;;;;;;;0.00;0.00;;;;;;;;5113680;27;45338;-73
2022/08/24 10:37:40;;;;;;;;;0.33;0.33;;;;;;;;5119693;27;45332;-75
2022/08/24 10:40:09;;;;;;;;;1.00;1.00;;;;;;;;5113582;27;46107;-75
2022/08/24 10:45:36;;;;;;;;;1.33;1.33;;;;;;;;5119719;27;45305;-73
2022/08/24 10:48:19;;;;;;;;;1.00;1.00;;;;;;;;5108132;27;45428;-73
2022/08/24 10:50:53;;;;;;;;;2.00;1.00;;;;;;;;5110209;27;46032;-73
2022/08/24 10:53:22;;;;;;;;;1.00;1.00;;;;;;;;5108707;27;45430;-73
2022/08/24 10:55:56;;;;;;;;;1.00;1.00;;;;;;;;5112009;27;45444;-73
2022/08/24 10:58:33;;;;;;;;;2.00;2.00;;;;;;;;5116858;27;45362;-73
2022/08/24 11:01:17;;;;;;;;;2.00;2.00;;;;;;;;5111920;27;46308;-73
2022/08/24 11:03:52;;;;;;;;;1.00;1.00;;;;;;;;5087720;27;45443;-73
2022/08/24 11:06:18;;;;;;;;;2.00;2.00;;;;;;;;5078274;27;45384;-74
2022/08/24 11:08:53;;;;;;;;;1.00;1.00;;;;;;;;5078005;27;45369;-73
2022/08/24 11:11:23;;;;;;;;;2.33;2.33;;;;;;;;5066557;27;46408;-73
2022/08/24 11:14:09;;;;;;;;;0.33;0.33;;;;;;;;5083853;27;45511;-73
2022/08/24 11:16:36;;;;;;;;;3.00;3.00;;;;;;;;5067420;27;45542;-73
2022/08/24 11:19:04;;;;;;;;;1.67;1.67;;;;;;;;5097918;27;45431;-73
2022/08/24 11:21:35;;;;;;;;;1.67;1.67;;;;;;;;5095377;27;46178;-73
2022/08/24 11:24:23;;;;;;;;;2.67;2.67;;;;;;;;5098481;27;45338;-73
2022/08/24 11:26:57;;;;;;;;;2.33;1.67;;;;;;;;5076923;27;45360;-73
2022/08/24 11:29:29;;;;;;;;;3.00;2.00;;;;;;;;5096664;27;45550;-74
2022/08/24 11:31:54;;;;;;;;;2.00;2.00;;;;;;;;5097358;27;45425;-74
2022/08/24 11:34:30;;;;;;;;;1.33;1.00;;;;;;;;5091421;27;45472;-73
2022/08/24 11:36:56;;;;;;;;;1.33;1.33;;;;;;;;5095076;27;45468;-73
2022/08/24 11:39:24;;;;;;;;;5.00;1.67;;;;;;;;5091658;27;45362;-73
2022/08/24 11:41:49;;;;;;;;;2.00;2.00;;;;;;;;5098596;27;46254;-74
2022/08/24 11:44:31;;;;;;;;;2.00;1.67;;;;;;;;5093933;27;45374;-74
2022/08/24 11:47:02;;;;;;;;;1.00;1.00;;;;;;;;5097691;27;45359;-73
2022/08/24 11:49:35;;;;;;;;;2.00;2.00;;;;;;;;5098519;27;45374;-73
2022/08/24 11:52:21;;;;;;;;;3.00;2.00;;;;;;;;5090865;27;45356;-73
2022/08/24 11:54:55;;;;;;;;;2.00;2.00;;;;;;;;5059562;27;45235;-73
2022/08/24 11:57:23;;;;;;;;;3.00;2.00;;;;;;;;5094343;27;45278;-73
2022/08/24 11:59:53;;;;;;;;;1.00;1.00;;;;;;;;5091856;27;45588;-72
2022/08/24 12:02:30;;;;;;;;;2.00;2.00;;;;;;;;5096928;27;46265;-73
2022/08/24 12:05:05;;;;;;;;;2.67;2.67;;;;;;;;5085271;27;45477;-73
2022/08/24 12:07:30;;;;;;;;;1.00;1.00;;;;;;;;5093647;27;45403;-73
2022/08/24 12:10:13;;;;;;;;;2.00;2.00;;;;;;;;5089807;27;45483;-73
2022/08/24 12:12:57;;;;;;;;;1.00;1.00;;;;;;;;5084996;27;46900;-74
2022/08/24 12:15:28;;;;;;;;;1.33;1.33;;;;;;;;5085282;27;45406;-73
2022/08/24 12:17:56;;;;;;;;;2.00;2.00;;;;;;;;5093696;27;45284;-73
2022/08/24 12:20:28;;;;;;;;;0.67;0.67;;;;;;;;5097876;27;45462;-74
2022/08/24 12:22:57;;;;;;;;;0.67;0.67;;;;;;;;5092216;27;46389;-73
2022/08/24 12:28:09;;;;;;;;;2.00;2.00;;;;;;;;5097418;27;45317;-73
2022/08/24 12:30:35;;;;;;;;;0.67;0.67;;;;;;;;5084856;27;45626;-73
2022/08/24 12:33:02;;;;;;;;;1.33;1.33;;;;;;;;5089366;27;45436;-74
2022/08/24 12:35:30;;;;;;;;;3.00;3.00;;;;;;;;5093338;27;45390;-73
2022/08/24 12:38:13;;;;;;;;;2.00;2.00;;;;;;;;5079612;27;45314;-74
2022/08/24 12:40:43;;;;;;;;;0.33;0.33;;;;;;;;5077476;27;45408;-73
2022/08/24 12:43:16;;;;;;;;;2.00;2.00;;;;;;;;5083408;27;46223;-74
2022/08/24 12:45:42;;;;;;;;;0.33;0.33;;;;;;;;5096859;27;45441;-74
2022/08/24 12:48:27;;;;;;;;;1.67;1.67;;;;;;;;5097236;27;45336;-74
2022/08/24 12:51:13;;;;;;;;;3.00;3.00;;;;;;;;5086166;27;45339;-74
2022/08/24 12:53:57;;;;;;;;;2.00;2.00;;;;;;;;5094538;27;46210;-73
2022/08/24 12:56:41;;;;;;;;;2.00;2.00;;;;;;;;5086627;27;45316;-73
2022/08/24 12:59:06;;;;;;;;;2.67;1.00;;;;;;;;5087478;27;45332;-74
2022/08/24 13:01:34;;;;;;;;;1.67;1.67;;;;;;;;5097400;27;45451;-74
2022/08/24 13:04:09;;;;;;;;;2.00;2.00;;;;;;;;5095804;27;47028;-74
2022/08/24 13:06:37;;;;;;;;;1.33;1.33;;;;;;;;5092915;27;45774;-74
2022/08/24 13:09:26;;;;;;;;;3.33;2.33;;;;;;;;5090669;27;45469;-74
2022/08/24 13:11:53;;;;;;;;;2.00;2.00;;;;;;;;5079087;27;45465;-74
2022/08/24 13:14:22;;;;;;;;;1.67;1.33;;;;;;;;5092620;27;46109;-73
2022/08/24 13:16:51;;;;;;;;;1.00;1.00;;;;;;;;5096660;27;45384;-74
2022/08/24 13:19:30;;;;;;;;;2.00;2.00;;;;;;;;5096834;27;45488;-74
2022/08/24 13:21:57;;;;;;;;;1.00;1.00;;;;;;;;5096983;27;45394;-74
2022/08/24 13:24:28;;;;;;;;;2.00;2.00;;;;;;;;5096338;27;46159;-74
2022/08/24 13:27:02;;;;;;;;;2.00;2.00;;;;;;;;5086785;27;45317;-74
2022/08/24 13:29:32;;;;;;;;;2.00;2.00;;;;;;;;5090143;27;46656;-74
2022/08/24 13:31:58;;;;;;;;;2.00;2.00;;;;;;;;5085047;27;45547;-74
2022/08/24 13:34:38;;;;;;;;;1.00;1.00;;;;;;;;5079282;27;47257;-74
2022/08/24 13:37:10;;;;;;;;;1.33;1.33;;;;;;;;5087233;27;45356;-74
2022/08/24 13:39:54;;;;;;;;;2.33;2.00;;;;;;;;5096489;27;45303;-74
2022/08/24 13:42:34;;;;;;;;;1.00;1.00;;;;;;;;5071534;28;45362;-74
2022/08/24 13:45:17;;;;;;;;;2.00;2.00;;;;;;;;5094043;27;46169;-73
2022/08/24 13:47:58;;;;;;;;;1.33;1.33;;;;;;;;5072508;27;45367;-73
2022/08/24 13:50:31;;;;;;;;;0.33;0.33;;;;;;;;5096318;27;45510;-73
2022/08/24 13:53:15;;;;;;;;;1.00;1.00;;;;;;;;5078195;27;45315;-73
2022/08/24 13:55:44;;;;;;;;;2.00;2.00;;;;;;;;5074025;27;47218;-73
2022/08/24 13:58:35;;;;;;;;;1.33;1.33;;;;;;;;5091572;27;45419;-73
2022/08/24 14:01:05;;;;;;;;;1.33;1.33;;;;;;;;5009378;28;45433;-74
2022/08/24 14:03:37;;;;;;;;;1.00;1.00;;;;;;;;5032782;28;45720;-74
2022/08/24 14:06:21;;;;;;;;;1.00;1.00;;;;;;;;5049124;28;46314;-74
2022/08/24 14:08:59;;;;;;;;;0.33;0.33;;;;;;;;5047041;28;45412;-74
2022/08/24 14:11:24;;;;;;;;;1.00;1.00;;;;;;;;5040305;28;45469;-73
2022/08/24 14:14:09;;;;;;;;;2.00;2.00;;;;;;;;5052853;28;45567;-73
2022/08/24 14:19:23;;;;;;;;;1.33;1.33;;;;;;;;5052865;28;45455;-74
2022/08/24 14:21:53;;;;;;;;;1.00;1.00;;;;;;;;5053175;28;46158;-74
2022/08/24 14:24:39;;;;;;;;;1.00;1.00;;;;;;;;5052442;28;45335;-73
2022/08/24 14:27:06;;;;;;;;;2.00;2.00;;;;;;;;5052751;28;45604;-74
2022/08/24 14:29:33;;;;;;;;;3.00;1.33;;;;;;;;5043465;28;45452;-74
2022/08/24 14:31:59;;;;;;;;;0.67;0.67;;;;;;;;5039961;28;45430;-73
2022/08/24 14:34:27;;;;;;;;;2.00;2.00;;;;;;;;5047493;28;45357;-74
2022/08/24 14:36:55;;;;;;;;;0.33;0.33;;;;;;;;5046366;27;46203;-74
2022/08/24 14:39:39;;;;;;;;;2.00;2.00;;;;;;;;5108826;27;45312;-73
2022/08/24 14:42:04;;;;;;;;;1.33;1.33;;;;;;;;5090885;27;45349;-73
2022/08/24 14:44:29;;;;;;;;;1.00;1.00;;;;;;;;5116334;27;45665;-73
2022/08/24 14:46:59;;;;;;;;;1.00;1.00;;;;;;;;5116206;27;45272;-74
2022/08/24 14:49:51;;;;;;;;;2.00;1.67;;;;;;;;5116558;27;45754;-73
2022/08/24 14:52:34;;;;;;;;;0.67;0.67;;;;;;;;5105114;27;45256;-73
2022/08/24 14:54:59;;;;;;;;;1.00;1.00;;;;;;;;5103199;27;45618;-73
2022/08/24 14:57:36;;;;;;;;;1.00;1.00;;;;;;;;5113838;27;45412;-73
2022/08/24 15:00:14;;;;;;;;;1.00;1.00;;;;;;;;5104297;27;45430;-74
2022/08/24 15:02:39;;;;;;;;;2.00;2.00;;;;;;;;5103370;27;45504;-74
2022/08/24 15:05:11;;;;;;;;;1.00;1.00;;;;;;;;5090820;27;45291;-73
2022/08/24 15:07:37;;;;;;;;;2.00;1.33;;;;;;;;5090126;27;45382;-73
2022/08/24 15:10:10;;;;;;;;;1.33;1.33;;;;;;;;5098496;27;45380;-74
2022/08/24 15:12:37;;;;;;;;;0.67;0.67;;;;;;;;5084349;27;45452;-73
2022/08/24 15:15:20;;;;;;;;;2.00;2.00;;;;;;;;5087768;27;45466;-73